Canyon, TX (79015)

3:47 AM CDT en Abril 25, 2015 (GMT -0500)
Spring Lake | | Change Station
CLOSE
Current Station
Estación meteorológica personal
Location: Canyon, TX
Altura: 3629 ft
Estaciones meteorológicas cercanas

Alt 3629 ft 35.03 °N, 101.93 °W | Updated 11 seconds ago

Despejado
Despejado
50.5 ° F
Sensación térmica 50.5 ° F
N
8.7
Viento Variable Viento desde NO
Gusts 9.8 mph

Hoy
Alta -- | Baja -- ° F
--% Posibilidad de precipitaciones
Ayer
Alta -- | Baja -- ° F
Precip. -- pul
7:03 AM 8:28 PM
Creciente, 44% visible
Presión 29.59 pul
Visibilidad 10.0 Millas
Nubes Despejado
Punto de rocío 34 ° F
Humedad 54%
Precipitaciones 0.00 pul
Espesor de la nieve No disponible.
UV 0.0 de una escala de 12
Polen 8.60 de una escala de 12
Calidad del aire No disponible.
Flu Activity Local Activity
METAR KAMA 250753Z AUTO 26017KT 10SM CLR 15/M03 A2972 RMK AO2 PK WND 26027/0729 SLP020 T01501028

More Conditions Fewer Conditions

Presión 29.59 pul
Visibilidad 10.0 Millas
Nubes Despejado
Punto de rocío 34 ° F
Humedad 54%
Precipitaciones 0.00 pul
Espesor de la nieve No disponible.
UV 0.0 de una escala de 12
Polen 8.60 de una escala de 12
Calidad del aire No disponible.
Flu Activity Local Activity
METAR KAMA 250753Z AUTO 26017KT 10SM CLR 15/M03 A2972 RMK AO2 PK WND 26027/0729 SLP020 T01501028

More Conditions Fewer Conditions

10-Day Weather Forecast

Almanac

Astronomía

Apr. 25, 2015 Salida Puesta
Hora real
Crepúsculo civil
Crepúsculo náutico
Crepúsculo astronómico
Luna
Horas de luz
Horas de luz
Tomorrow will be .
, % of the Moon is Illuminated

Extremos de hoy

Máximos del estado Bajos del estado

Community

WunderPhotos

Upload Photos

1,816,624 ¡fotos cargadas!

WunderBlogs® & News

Nearby

Calidad del aire

  Calidad del aire Índice AQ Contaminante
Not available.

Grosos de nieve

Estación Profundido Altura

Actividad de terremotos

Ciudad Distance Mag. Tiempo y dato
Magnitud mínima muestra es 2,5.

Temperaturas de aguas costeras

Lugar Temperatura

Stations

Estaciones meteorológicas cercanas

Ubicación de la estación Temp. Vientos helados Punto de rocío Humedad Viento Precip. Alt Actualizado Tipo